Mosquero, New Mexico
Current Conditions -  °F | °C
As of 8:53 PM on Sunday 23 Nov 2014 (Local Time) from KTCC Reporting Station
NA  
Wind Chill: 25°   Ceiling: NA
Heat Index: 34°   Visibility: 10mi
Dew Point: 31°   Wind: 13mph
Humidity: 89%   Direction: 280°W
Pressure: 29.94"   Gusts: NA
Location:  35.78°N, 103.96°W
Report Text: KTCC 240353Z AUTO 28011KT 10SM 01/M01 A2994 RMK AO2 SLP125 T00111006
Loading
Personal Weather Stations






























Interactive Weather Map New forecast layout! Learn more

10-Day Weather Forecast

Advertisements
Track Severe Weather on mobile